Time;durP1;ratioP1;P1;durP2;ratioP2;P2;SDS_P1;SDS_P2;PMS_P1;PMS_P2;Temp;Humidity;BMP_temperature;BMP_pressure;BME280_temperature;BME280_humidity;BME280_pressure;Samples;Min_cycle;Max_cycle;Signal;HPM_P1;HPM_P2
2021/09/01 00:00:10;;;;;;;18.30;16.23;;;13.30;1.00;14.20;101453.00;;;;4878523;29;20997;-82
2021/09/01 00:02:41;;;;;;;19.93;17.73;;;13.30;1.00;14.20;101456.00;;;;4879147;29;20459;-82
2021/09/01 00:05:11;;;;;;;19.40;17.40;;;13.20;1.00;14.20;101457.00;;;;4877547;29;21035;-82
2021/09/01 00:07:41;;;;;;;18.80;17.00;;;13.20;1.00;14.20;101439.00;;;;4878652;29;20452;-82
2021/09/01 00:10:11;;;;;;;18.33;16.40;;;13.20;1.00;14.20;101453.00;;;;4869307;29;20487;-82
2021/09/01 00:12:39;;;;;;;21.43;18.60;;;13.20;1.00;14.10;101453.00;;;;4871558;29;20499;-82
2021/09/01 00:15:10;;;;;;;23.03;18.03;;;13.20;1.00;14.10;101449.00;;;;4877946;29;21004;-81
2021/09/01 00:17:40;;;;;;;20.40;18.20;;;13.20;1.00;14.10;101393.00;;;;4871548;29;20528;-81
2021/09/01 00:20:11;;;;;;;21.67;17.90;;;13.20;1.00;14.00;101427.00;;;;4882582;29;20494;-82
2021/09/01 00:22:40;;;;;;;15.77;14.23;;;13.10;1.00;14.00;101446.00;;;;4875347;29;20491;-81
2021/09/01 00:25:10;;;;;;;18.50;16.60;;;13.00;1.00;14.00;101425.00;;;;4866417;29;20488;-81
2021/09/01 00:27:39;;;;;;;19.50;17.60;;;13.00;1.00;14.00;101416.00;;;;4885834;29;20472;-81
2021/09/01 00:30:09;;;;;;;18.90;16.90;;;13.00;1.00;14.00;101421.00;;;;4876329;29;20468;-80
2021/09/01 00:32:37;;;;;;;19.67;17.37;;;12.90;1.00;13.90;101420.00;;;;4877552;29;20471;-80
2021/09/01 00:35:08;;;;;;;17.93;15.97;;;12.90;1.00;13.90;101407.00;;;;4879093;29;20707;-81
2021/09/01 00:37:36;;;;;;;20.60;18.50;;;12.90;1.00;13.90;101436.00;;;;4873200;29;20475;-81
2021/09/01 00:40:07;;;;;;;18.13;16.43;;;12.90;1.00;13.80;101441.00;;;;4867853;29;20555;-80
2021/09/01 00:42:36;;;;;;;19.07;17.07;;;12.90;1.00;13.80;101441.00;;;;4877092;29;20485;-82
2021/09/01 00:45:07;;;;;;;19.40;17.30;;;12.90;1.00;13.80;101421.00;;;;4884851;29;20483;-82
2021/09/01 00:47:37;;;;;;;20.43;18.23;;;12.90;1.00;13.80;101440.00;;;;4892143;29;20497;-80
2021/09/01 00:50:10;;;;;;;22.20;18.00;;;12.90;1.00;13.80;101435.00;;;;4882741;29;20600;-80
2021/09/01 00:52:41;;;;;;;19.90;17.80;;;12.80;1.00;13.70;101425.00;;;;4889188;29;20448;-81
2021/09/01 00:55:11;;;;;;;21.30;19.30;;;12.70;1.00;13.70;101428.00;;;;4880991;29;20464;-81
2021/09/01 00:57:42;;;;;;;18.63;16.70;;;12.70;1.00;13.70;101447.00;;;;4881350;29;20464;-81
2021/09/01 01:00:19;;;;;;;19.30;17.27;;;12.70;1.00;13.70;101445.00;;;;4881844;29;20498;-82
2021/09/01 01:02:48;;;;;;;19.27;17.37;;;12.70;1.00;13.60;101442.00;;;;4881721;29;20478;-83
2021/09/01 01:05:19;;;;;;;17.50;15.60;;;12.60;1.00;13.60;101437.00;;;;4877200;29;20468;-82
2021/09/01 01:07:47;;;;;;;18.90;17.00;;;12.60;1.00;13.60;101443.00;;;;4877553;29;20531;-79
2021/09/01 01:10:16;;;;;;;18.37;16.47;;;12.70;1.00;13.60;101417.00;;;;4875143;29;20599;-81
2021/09/01 01:12:44;;;;;;;17.90;16.07;;;12.70;1.00;13.50;101446.00;;;;4878946;29;20895;-81
2021/09/01 01:15:13;;;;;;;17.87;16.07;;;12.60;1.00;13.50;101427.00;;;;4877448;29;20496;-81
2021/09/01 01:17:41;;;;;;;18.10;15.87;;;12.60;1.00;13.50;101428.00;;;;4880081;29;20534;-79
2021/09/01 01:20:11;;;;;;;25.93;16.20;;;12.60;1.00;13.50;101458.00;;;;4884364;29;20495;-80
2021/09/01 01:22:40;;;;;;;18.00;15.20;;;12.60;1.00;13.50;101450.00;;;;4884848;29;20510;-80
2021/09/01 01:25:12;;;;;;;17.67;15.80;;;12.50;1.00;13.50;101473.00;;;;4887028;29;20475;-80
2021/09/01 01:27:43;;;;;;;16.53;14.83;;;12.60;1.00;13.50;101464.00;;;;4892409;29;20584;-79
2021/09/01 01:30:15;;;;;;;17.93;16.03;;;12.60;1.00;13.40;101468.00;;;;4884006;29;20472;-80
2021/09/01 01:32:48;;;;;;;17.93;16.13;;;12.50;1.00;13.40;101464.00;;;;4892755;29;20480;-80
2021/09/01 01:35:26;;;;;;;20.37;16.47;;;12.60;1.00;13.40;101465.00;;;;4892739;29;20456;-80
2021/09/01 01:37:55;;;;;;;19.70;17.63;;;12.40;1.00;13.40;101478.00;;;;4881686;29;20594;-80
2021/09/01 01:40:25;;;;;;;18.77;16.70;;;12.40;1.00;13.30;101457.00;;;;4879318;29;20484;-82
2021/09/01 01:42:56;;;;;;;19.77;16.57;;;12.40;1.00;13.40;101478.00;;;;4895778;29;20484;-79
2021/09/01 01:45:30;;;;;;;21.10;17.80;;;12.40;1.00;13.30;101451.00;;;;4895849;29;20748;-80
2021/09/01 01:47:59;;;;;;;18.23;15.40;;;12.50;1.00;13.30;101385.00;;;;4886445;29;20523;-80
2021/09/01 01:50:28;;;;;;;16.60;14.90;;;12.50;1.00;13.30;101483.00;;;;4885327;29;20516;-81
2021/09/01 01:52:57;;;;;;;18.23;14.27;;;12.50;1.00;13.50;101471.00;;;;4881184;29;20452;-79
2021/09/01 01:55:25;;;;;;;15.40;13.87;;;12.60;1.00;13.50;101462.00;;;;4891019;29;20470;-80
2021/09/01 01:57:55;;;;;;;15.53;13.83;;;12.70;1.00;13.50;101487.00;;;;4879952;29;20464;-81
2021/09/01 02:00:24;;;;;;;15.27;13.70;;;12.70;1.00;13.50;101475.00;;;;4882516;29;20488;-82
2021/09/01 02:02:53;;;;;;;16.37;14.00;;;12.70;1.00;13.50;101464.00;;;;4875269;29;20467;-81
2021/09/01 02:05:21;;;;;;;13.73;12.33;;;12.80;1.00;13.60;101481.00;;;;4885743;29;20467;-81
2021/09/01 02:07:50;;;;;;;13.77;12.40;;;12.80;1.00;13.60;101478.00;;;;4889068;29;21351;-79
2021/09/01 02:10:19;;;;;;;16.03;11.73;;;12.90;1.00;13.60;101482.00;;;;4884999;29;20495;-80
2021/09/01 02:12:48;;;;;;;14.63;12.07;;;12.90;1.00;13.50;101474.00;;;;4887760;29;20522;-81
2021/09/01 02:15:18;;;;;;;15.97;11.83;;;13.00;1.00;13.70;101462.00;;;;4892361;29;20456;-80
2021/09/01 02:17:46;;;;;;;12.67;10.90;;;13.00;1.00;13.70;101474.00;;;;4891666;29;20479;-80
2021/09/01 02:20:17;;;;;;;12.47;11.17;;;13.00;1.00;13.70;101469.00;;;;4896022;29;20491;-80
2021/09/01 02:22:47;;;;;;;12.00;10.47;;;13.00;1.00;13.70;101459.00;;;;4888575;29;20551;-80
2021/09/01 02:25:15;;;;;;;12.07;10.70;;;13.10;1.00;13.70;101463.00;;;;4892480;29;20488;-80
2021/09/01 02:27:44;;;;;;;12.27;10.80;;;13.20;1.00;13.70;101458.00;;;;4883119;29;20468;-80
2021/09/01 02:30:13;;;;;;;10.67;9.57;;;13.20;1.00;13.80;101449.00;;;;4881547;29;20609;-81
2021/09/01 02:32:43;;;;;;;11.60;9.40;;;13.20;1.00;13.80;101459.00;;;;4881920;29;20486;-81
2021/09/01 02:35:11;;;;;;;12.00;10.80;;;13.40;1.00;13.80;101459.00;;;;4882753;29;20475;-80
2021/09/01 02:37:40;;;;;;;11.83;10.57;;;13.40;1.00;13.80;101445.00;;;;4881348;29;20499;-81
2021/09/01 02:40:09;;;;;;;10.23;9.10;;;13.40;1.00;13.80;101471.00;;;;4880917;29;20498;-80
2021/09/01 02:42:37;;;;;;;12.13;9.27;;;13.40;1.00;13.90;101464.00;;;;4878599;29;20472;-81
2021/09/01 02:45:07;;;;;;;13.30;10.03;;;13.50;1.00;14.00;101454.00;;;;4880247;29;20495;-81
2021/09/01 02:47:36;;;;;;;10.37;9.07;;;13.50;1.00;14.00;101450.00;;;;4872861;29;20460;-81
2021/09/01 02:50:07;;;;;;;12.60;9.30;;;13.60;1.00;14.10;101455.00;;;;4877849;29;20488;-80
2021/09/01 02:52:36;;;;;;;12.77;9.13;;;13.60;1.00;14.10;101467.00;;;;4886614;29;20482;-80
2021/09/01 02:55:05;;;;;;;10.40;8.83;;;13.60;1.00;14.10;101475.00;;;;4882318;29;20447;-81
2021/09/01 02:57:34;;;;;;;10.00;9.00;;;13.70;1.00;14.10;101476.00;;;;4892699;29;20482;-80
2021/09/01 03:00:02;;;;;;;9.70;8.70;;;13.70;1.00;14.10;101483.00;;;;4894515;29;20500;-80
2021/09/01 03:02:31;;;;;;;12.27;9.00;;;13.70;1.00;14.10;101479.00;;;;4894455;29;20467;-80
2021/09/01 03:04:59;;;;;;;11.37;9.47;;;13.70;1.00;14.20;101478.00;;;;4884640;29;20460;-82
2021/09/01 03:07:30;;;;;;;13.77;10.17;;;13.80;1.00;14.10;101484.00;;;;4876484;29;20892;-80
2021/09/01 03:09:58;;;;;;;11.83;9.90;;;13.70;1.00;14.10;101485.00;;;;4876166;29;20550;-81
2021/09/01 03:12:26;;;;;;;10.80;9.70;;;13.70;1.00;14.10;101459.00;;;;4880540;29;20459;-81
2021/09/01 03:14:54;;;;;;;10.63;9.50;;;13.60;1.00;14.10;101477.00;;;;4877061;29;20460;-82
2021/09/01 03:17:23;;;;;;;14.47;10.40;;;13.60;1.00;14.10;101481.00;;;;4884460;29;20467;-82
2021/09/01 03:19:51;;;;;;;11.13;9.23;;;13.70;1.00;14.10;101485.00;;;;4875982;29;20495;-82
2021/09/01 03:22:19;;;;;;;11.27;8.80;;;13.70;1.00;14.10;101466.00;;;;4895285;29;21053;-81
2021/09/01 03:24:49;;;;;;;11.07;9.80;;;13.70;1.00;14.10;101477.00;;;;4883250;29;20534;-82
2021/09/01 03:27:17;;;;;;;10.97;9.67;;;13.60;1.00;14.00;101474.00;;;;4882789;29;20484;-81
2021/09/01 03:29:48;;;;;;;11.93;10.20;;;13.60;1.00;14.00;101476.00;;;;4878901;29;20484;-81
2021/09/01 03:32:17;;;;;;;11.30;10.03;;;13.60;1.00;14.00;101432.00;;;;4878569;29;20495;-81
2021/09/01 03:34:45;;;;;;;13.07;10.40;;;13.60;1.00;14.00;101487.00;;;;4881756;29;21037;-81
2021/09/01 03:37:13;;;;;;;12.30;9.87;;;13.60;1.00;14.00;101486.00;;;;4877172;29;20734;-81
2021/09/01 03:39:42;;;;;;;11.60;9.83;;;13.50;1.00;14.00;101467.00;;;;4878366;29;20594;-83
2021/09/01 03:42:12;;;;;;;12.03;10.07;;;13.50;1.00;13.90;101451.00;;;;4877033;29;20468;-81
2021/09/01 03:44:40;;;;;;;10.43;9.43;;;13.50;1.00;13.70;101473.00;;;;4885060;29;20460;-82
2021/09/01 03:47:09;;;;;;;11.07;9.87;;;13.40;1.00;13.90;101499.00;;;;4886316;29;20460;-80
2021/09/01 03:49:37;;;;;;;11.03;9.93;;;13.40;1.00;13.90;101468.00;;;;4892361;29;20469;-81
2021/09/01 03:52:06;;;;;;;15.43;12.13;;;13.40;1.00;13.80;101496.00;;;;4882861;29;20456;-80
2021/09/01 03:54:34;;;;;;;11.23;10.10;;;13.40;1.00;13.90;101495.00;;;;4891902;29;20457;-81
2021/09/01 03:57:02;;;;;;;12.10;9.90;;;13.40;1.00;13.80;101455.00;;;;4894599;29;20479;-81
2021/09/01 03:59:33;;;;;;;11.73;10.47;;;13.30;1.00;13.80;101491.00;;;;4892762;29;20567;-81
2021/09/01 04:02:05;;;;;;;11.00;9.77;;;13.30;1.00;13.80;101490.00;;;;4888798;29;20464;-81
2021/09/01 04:04:34;;;;;;;14.57;10.33;;;13.30;1.00;13.70;101501.00;;;;4884277;29;20521;-81
2021/09/01 04:07:03;;;;;;;14.27;10.90;;;13.20;1.00;13.70;101499.00;;;;4877984;29;20552;-81
2021/09/01 04:09:32;;;;;;;14.90;11.03;;;13.20;1.00;13.40;101476.00;;;;4878958;29;20469;-80
2021/09/01 04:12:06;;;;;;;12.67;11.00;;;13.10;1.00;13.60;101489.00;;;;4887594;29;20515;-80
2021/09/01 04:14:35;;;;;;;13.07;11.60;;;13.00;1.00;13.50;101489.00;;;;4888059;29;20467;-79
2021/09/01 04:17:04;;;;;;;15.77;13.20;;;13.00;1.00;13.50;101486.00;;;;4894388;29;20542;-80
2021/09/01 04:19:33;;;;;;;13.20;11.37;;;12.90;1.00;13.50;101512.00;;;;4890219;29;20483;-80
2021/09/01 04:22:01;;;;;;;15.80;11.57;;;12.90;1.00;13.50;101503.00;;;;4881261;29;20476;-80
2021/09/01 04:24:29;;;;;;;15.17;11.63;;;12.90;1.00;13.50;101499.00;;;;4892479;29;20484;-81
2021/09/01 04:26:58;;;;;;;14.43;12.47;;;13.00;1.00;13.50;101499.00;;;;4882275;29;20463;-81
2021/09/01 04:29:26;;;;;;;18.20;13.47;;;13.00;1.00;13.50;101506.00;;;;4879257;29;20502;-81
2021/09/01 04:31:56;;;;;;;19.20;13.17;;;13.00;1.00;13.50;101475.00;;;;4874541;29;20540;-81
2021/09/01 04:34:24;;;;;;;14.53;12.67;;;13.00;1.00;13.50;101481.00;;;;4882520;29;21385;-81
2021/09/01 04:36:53;;;;;;;16.53;13.10;;;13.00;1.00;13.50;101518.00;;;;4902703;29;20551;-81
2021/09/01 04:39:21;;;;;;;15.00;12.87;;;13.00;1.00;13.50;101513.00;;;;4878238;29;20918;-82
2021/09/01 04:41:52;;;;;;;19.03;13.00;;;13.00;1.00;13.40;101475.00;;;;4897955;29;20484;-79
2021/09/01 04:44:20;;;;;;;17.90;12.87;;;13.00;1.00;13.40;101515.00;;;;4891602;29;20499;-81
2021/09/01 04:46:49;;;;;;;18.77;12.67;;;13.00;1.00;13.40;101508.00;;;;4884769;29;20449;-80
2021/09/01 04:49:18;;;;;;;18.47;13.17;;;12.90;1.00;13.40;101507.00;;;;4895980;29;20460;-81
2021/09/01 04:51:47;;;;;;;16.90;13.10;;;12.90;1.00;13.40;101497.00;;;;4882420;29;20582;-81
2021/09/01 04:54:17;;;;;;;17.47;15.23;;;12.80;1.00;13.40;101504.00;;;;4885916;29;20559;-81
2021/09/01 04:56:45;;;;;;;19.27;15.90;;;12.80;1.00;13.40;101527.00;;;;4888545;29;20472;-82
2021/09/01 04:59:14;;;;;;;15.77;13.70;;;12.80;1.00;13.40;101469.00;;;;4879199;29;20464;-81
2021/09/01 05:01:42;;;;;;;15.33;12.60;;;12.80;1.00;13.50;101523.00;;;;4876990;29;20480;-81
2021/09/01 05:04:11;;;;;;;15.37;12.50;;;12.90;1.00;13.50;101522.00;;;;4878957;29;20504;-82
2021/09/01 05:06:40;;;;;;;16.73;13.13;;;13.00;1.00;13.40;101452.00;;;;4876413;29;20470;-82
2021/09/01 05:09:08;;;;;;;19.77;12.33;;;12.90;1.00;13.50;101529.00;;;;4878675;29;20468;-82
2021/09/01 05:11:37;;;;;;;17.23;14.67;;;12.90;1.00;13.60;101517.00;;;;4879111;29;20507;-81
2021/09/01 05:14:05;;;;;;;15.20;12.97;;;12.90;1.00;13.60;101520.00;;;;4880644;29;20456;-83
2021/09/01 05:16:33;;;;;;;16.23;12.83;;;13.00;1.00;13.60;101517.00;;;;4884995;29;20474;-81
2021/09/01 05:19:02;;;;;;;17.47;13.10;;;13.00;1.00;13.70;101492.00;;;;4877689;29;20457;-81
2021/09/01 05:21:33;;;;;;;14.07;12.57;;;13.00;1.00;13.70;101522.00;;;;4878465;29;20896;-81
2021/09/01 05:24:03;;;;;;;15.63;13.13;;;13.00;1.00;13.80;101531.00;;;;4877991;29;20456;-83
2021/09/01 05:26:33;;;;;;;13.50;12.10;;;13.10;1.00;13.90;101447.00;;;;4892428;29;20499;-80
2021/09/01 05:29:05;;;;;;;19.43;12.90;;;13.20;1.00;14.00;101467.00;;;;4881046;29;20470;-82
2021/09/01 05:31:34;;;;;;;15.30;12.50;;;13.20;1.00;13.90;101543.00;;;;4877034;29;20599;-82
2021/09/01 05:34:04;;;;;;;15.53;12.57;;;13.30;1.00;14.10;101541.00;;;;4875768;29;20468;-81
2021/09/01 05:36:34;;;;;;;15.40;12.30;;;13.40;1.00;14.20;101466.00;;;;4875012;29;20466;-81
2021/09/01 05:39:04;;;;;;;16.73;13.60;;;13.50;1.00;14.30;101524.00;;;;4877467;29;20464;-82
2021/09/01 05:41:32;;;;;;;13.13;11.50;;;13.60;1.00;14.40;101547.00;;;;4890237;29;20480;-80
2021/09/01 05:44:01;;;;;;;16.73;12.90;;;13.70;1.00;14.50;101546.00;;;;4895241;29;20460;-81
2021/09/01 05:46:32;;;;;;;18.80;14.30;;;14.00;1.00;14.60;101489.00;;;;4884041;29;20464;-81
2021/09/01 05:49:01;;;;;;;16.10;12.93;;;14.00;1.00;14.70;101540.00;;;;4891141;29;20460;-82
2021/09/01 05:51:31;;;;;;;18.50;14.20;;;14.10;1.00;14.80;101531.00;;;;4890857;29;20475;-81
2021/09/01 05:53:59;;;;;;;14.83;12.30;;;14.20;1.00;14.90;101547.00;;;;4884299;29;20464;-82
2021/09/01 05:56:34;;;;;;;14.00;11.57;;;14.30;1.00;15.00;101494.00;;;;4879581;29;20464;-81
2021/09/01 05:59:09;;;;;;;18.40;12.30;;;14.50;1.00;15.20;101515.00;;;;4880776;29;20460;-81
2021/09/01 06:01:42;;;;;;;15.40;11.37;;;14.60;1.00;15.20;101511.00;;;;4879835;29;20494;-82
2021/09/01 06:04:12;;;;;;;12.80;11.03;;;14.70;1.00;15.30;101546.00;;;;4887951;29;20468;-81
2021/09/01 06:06:44;;;;;;;13.27;11.90;;;14.80;1.00;15.40;101545.00;;;;4887710;29;20846;-81
2021/09/01 06:09:13;;;;;;;13.80;11.70;;;14.90;1.00;15.50;101549.00;;;;4882169;29;20899;-82
2021/09/01 06:11:45;;;;;;;12.30;10.87;;;15.00;1.00;15.60;101540.00;;;;4885481;29;20555;-81
2021/09/01 06:14:14;;;;;;;14.80;10.70;;;15.10;1.00;15.70;101539.00;;;;4882186;29;20721;-80
2021/09/01 06:16:42;;;;;;;13.60;10.63;;;15.20;1.00;15.80;101552.00;;;;4886630;29;20484;-80
2021/09/01 06:19:10;;;;;;;12.87;10.67;;;15.20;1.00;15.90;101544.00;;;;4894823;29;20470;-81
2021/09/01 06:21:39;;;;;;;11.83;10.33;;;15.30;1.00;16.00;101557.00;;;;4892136;29;20547;-81
2021/09/01 06:24:08;;;;;;;13.63;10.10;;;15.50;1.00;16.10;101553.00;;;;4893449;29;20516;-81
2021/09/01 06:26:36;;;;;;;17.63;10.80;;;15.40;1.00;16.00;101462.00;;;;4895168;29;20563;-81
2021/09/01 06:29:06;;;;;;;13.13;11.00;;;15.50;1.00;16.30;101543.00;;;;4892389;29;20481;-81
2021/09/01 06:31:38;;;;;;;15.00;10.80;;;15.60;1.00;16.30;101568.00;;;;4889559;29;20503;-82
2021/09/01 06:34:07;;;;;;;17.63;11.40;;;15.70;1.00;16.40;101554.00;;;;4884281;29;20467;-82
2021/09/01 06:36:35;;;;;;;16.20;10.00;;;15.70;1.00;16.40;101562.00;;;;4883413;29;20566;-80
2021/09/01 06:39:03;;;;;;;13.03;10.60;;;15.80;1.00;16.50;101528.00;;;;4882562;29;20458;-81
2021/09/01 06:41:32;;;;;;;13.30;10.23;;;16.00;1.00;16.50;101560.00;;;;4882112;29;20490;-80
2021/09/01 06:44:00;;;;;;;14.93;10.27;;;15.90;1.00;16.60;101564.00;;;;4880163;29;20468;-81
2021/09/01 06:46:30;;;;;;;12.17;9.00;;;16.00;1.00;16.60;101564.00;;;;4881521;29;20452;-81
2021/09/01 06:48:58;;;;;;;17.00;10.63;;;16.00;1.00;16.70;101488.00;;;;4878909;29;20479;-82
2021/09/01 06:51:27;;;;;;;15.33;10.10;;;16.10;1.00;16.70;101494.00;;;;4878667;29;20578;-81
2021/09/01 06:53:55;;;;;;;13.70;9.83;;;16.20;1.00;16.80;101571.00;;;;4881002;29;20573;-81
2021/09/01 06:56:23;;;;;;;13.30;9.77;;;16.20;1.00;16.80;101503.00;;;;4880593;29;21389;-81
2021/09/01 06:58:58;;;;;;;12.63;10.03;;;16.30;1.00;16.90;101559.00;;;;4894194;29;20579;-80
2021/09/01 07:01:27;;;;;;;11.97;10.00;;;16.40;1.00;16.90;101518.00;;;;4883267;29;20492;-82
2021/09/01 07:03:57;;;;;;;13.43;10.03;;;16.40;1.00;16.80;101562.00;;;;4878461;29;20463;-80
2021/09/01 07:06:25;;;;;;;15.03;10.60;;;16.50;1.00;17.10;101542.00;;;;4877430;29;20464;-81
2021/09/01 07:08:54;;;;;;;13.60;9.43;;;16.60;1.00;17.20;101566.00;;;;4879607;29;20464;-82
2021/09/01 07:11:22;;;;;;;14.83;9.50;;;16.70;1.00;17.20;101567.00;;;;4880523;29;20486;-81
2021/09/01 07:13:51;;;;;;;12.93;9.70;;;16.90;1.00;17.30;101562.00;;;;4882325;29;20455;-80
2021/09/01 07:16:19;;;;;;;15.60;10.50;;;16.90;1.00;17.40;101570.00;;;;4881147;29;20484;-80
2021/09/01 07:18:47;;;;;;;12.23;10.30;;;17.00;1.00;17.50;101541.00;;;;4889086;29;20511;-80
2021/09/01 07:21:17;;;;;;;14.00;11.03;;;17.20;1.00;17.60;101574.00;;;;4893966;29;20476;-79
2021/09/01 07:23:46;;;;;;;11.10;9.60;;;17.20;1.00;17.70;101557.00;;;;4895355;29;20463;-82
2021/09/01 07:26:14;;;;;;;15.87;11.07;;;17.30;1.00;17.80;101567.00;;;;4896264;29;20468;-80
2021/09/01 07:28:43;;;;;;;12.40;9.60;;;17.40;1.00;17.90;101573.00;;;;4893412;29;20464;-81
2021/09/01 07:31:11;;;;;;;12.00;9.50;;;17.50;1.00;18.10;101563.00;;;;4883637;29;20487;-81
2021/09/01 07:33:40;;;;;;;11.40;8.63;;;17.70;1.00;18.20;101542.00;;;;4883028;29;20452;-82
2021/09/01 07:36:08;;;;;;;17.30;9.50;;;17.70;1.00;18.20;101571.00;;;;4883899;29;20463;-79
2021/09/01 07:38:38;;;;;;;15.80;9.80;;;17.80;1.00;18.50;101548.00;;;;4891535;29;20463;-81
2021/09/01 07:41:07;;;;;;;11.23;8.70;;;18.10;1.00;18.60;101581.00;;;;4895114;29;20484;-81
2021/09/01 07:43:35;;;;;;;13.50;9.90;;;18.10;1.00;18.80;101576.00;;;;4896569;29;20558;-82
2021/09/01 07:46:03;;;;;;;12.27;9.30;;;18.30;1.00;19.00;101512.00;;;;4898647;29;20456;-81
2021/09/01 07:48:32;;;;;;;13.87;10.27;;;18.40;1.00;19.00;101586.00;;;;4899889;29;20448;-81
2021/09/01 07:51:01;;;;;;;13.27;9.87;;;18.40;1.00;19.10;101595.00;;;;4896527;29;20464;-81
2021/09/01 07:53:30;;;;;;;14.50;9.20;;;18.40;1.00;19.10;101571.00;;;;4897833;29;20452;-82
2021/09/01 07:55:59;;;;;;;12.80;8.30;;;18.50;1.00;19.10;101605.00;;;;4893641;29;20536;-82
2021/09/01 07:58:28;;;;;;;9.00;8.00;;;18.60;1.00;19.20;101587.00;;;;4894610;29;20464;-80
2021/09/01 08:00:56;;;;;;;12.63;7.90;;;18.70;1.00;19.30;101597.00;;;;4887580;29;20476;-81
2021/09/01 08:03:25;;;;;;;10.30;8.30;;;18.80;1.00;19.40;101589.00;;;;4889704;29;20496;-82
2021/09/01 08:05:53;;;;;;;16.27;9.77;;;18.80;1.00;19.60;101609.00;;;;4885082;29;20492;-81
2021/09/01 08:08:22;;;;;;;13.43;9.40;;;19.00;1.00;19.60;101605.00;;;;4881974;29;20475;-81
2021/09/01 08:10:50;;;;;;;13.27;8.10;;;19.10;1.00;19.80;101604.00;;;;4881637;29;20487;-81
2021/09/01 08:13:19;;;;;;;11.33;8.37;;;19.20;1.00;19.70;101607.00;;;;4888871;29;20478;-81
2021/09/01 08:15:48;;;;;;;9.67;7.83;;;19.40;1.00;20.00;101609.00;;;;4887542;29;20491;-81
2021/09/01 08:18:16;;;;;;;13.83;8.23;;;19.50;1.00;20.20;101614.00;;;;4883934;29;20464;-81
2021/09/01 08:20:47;;;;;;;9.73;7.63;;;19.70;1.00;20.40;101616.00;;;;4881307;29;20499;-81
2021/09/01 08:23:16;;;;;;;13.50;8.37;;;19.80;1.00;19.80;101640.00;;;;4881981;29;20559;-82
2021/09/01 08:25:44;;;;;;;10.73;8.43;;;19.50;1.00;19.60;101639.00;;;;4880644;29;20461;-81
2021/09/01 08:28:12;;;;;;;12.03;9.27;;;19.20;1.00;19.40;101646.00;;;;4879726;29;20483;-82
2021/09/01 08:30:42;;;;;;;15.67;8.40;;;19.00;1.00;19.40;101647.00;;;;4878115;29;20476;-81
2021/09/01 08:33:10;;;;;;;9.97;8.50;;;18.90;1.00;19.40;101653.00;;;;4879782;29;20484;-81
2021/09/01 08:35:39;;;;;;;10.47;9.37;;;18.90;1.00;19.20;101616.00;;;;4882229;29;20456;-82
2021/09/01 08:38:07;;;;;;;16.33;8.93;;;18.70;1.00;19.00;101658.00;;;;4878775;29;20466;-82
2021/09/01 08:40:36;;;;;;;15.70;9.80;;;18.40;1.00;18.80;101665.00;;;;4876937;29;20488;-84
2021/09/01 08:43:05;;;;;;;12.23;8.40;;;18.20;1.00;18.90;101647.00;;;;4891659;29;20480;-80
2021/09/01 08:45:34;;;;;;;15.87;8.33;;;18.30;1.00;19.00;101655.00;;;;4871194;29;20456;-81
2021/09/01 08:48:05;;;;;;;12.60;8.70;;;18.40;1.00;19.00;101657.00;;;;4876803;29;20985;-82
2021/09/01 08:50:33;;;;;;;13.37;8.30;;;18.50;1.00;19.10;101637.00;;;;4879603;29;20496;-80
2021/09/01 08:53:02;;;;;;;11.90;8.53;;;18.60;1.00;19.30;101660.00;;;;4882668;29;20459;-85
2021/09/01 08:55:30;;;;;;;10.90;7.50;;;18.80;1.00;19.30;101649.00;;;;4878345;29;20464;-81
2021/09/01 08:57:58;;;;;;;10.10;8.03;;;19.00;1.00;19.50;101657.00;;;;4885835;29;20543;-81
2021/09/01 09:00:27;;;;;;;12.80;7.53;;;19.10;1.00;19.60;101653.00;;;;4880482;29;20488;-82
2021/09/01 09:02:57;;;;;;;12.63;7.60;;;19.10;1.00;19.70;101601.00;;;;4892368;29;20479;-84
2021/09/01 09:05:34;;;;;;;13.30;7.70;;;19.20;1.00;19.70;101646.00;;;;4892062;29;20471;-80
2021/09/01 09:08:05;;;;;;;11.17;8.43;;;19.20;1.00;19.70;101652.00;;;;4901010;29;20436;-84
2021/09/01 09:10:36;;;;;;;10.73;7.47;;;19.30;1.00;19.80;101606.00;;;;4902310;29;20479;-81
2021/09/01 09:13:06;;;;;;;12.40;8.33;;;19.40;1.00;20.00;101663.00;;;;4888270;29;20444;-81
2021/09/01 09:15:35;;;;;;;13.70;7.80;;;19.60;1.00;20.00;101651.00;;;;4883921;29;20463;-79
2021/09/01 09:18:05;;;;;;;11.13;7.10;;;19.50;1.00;20.00;101650.00;;;;4877325;29;20861;-80
2021/09/01 09:20:36;;;;;;;11.47;7.97;;;19.50;1.00;20.00;101655.00;;;;4899630;29;20483;-86
2021/09/01 09:23:06;;;;;;;16.27;7.30;;;19.50;1.00;20.20;101636.00;;;;4901599;29;20496;-85
2021/09/01 09:25:35;;;;;;;9.57;7.00;;;19.60;1.00;20.30;101639.00;;;;4900381;29;20440;-85
2021/09/01 09:28:06;;;;;;;12.43;7.80;;;19.70;1.00;20.30;101617.00;;;;4893020;29;20485;-83
2021/09/01 09:30:42;;;;;;;9.37;8.10;;;19.80;1.00;20.20;101621.00;;;;4893513;29;20487;-82
2021/09/01 09:33:14;;;;;;;13.33;9.20;;;19.70;1.00;20.40;101653.00;;;;4873575;29;21052;-80
2021/09/01 09:35:55;;;;;;;10.87;7.90;;;19.80;1.00;20.70;101640.00;;;;4883220;29;20452;-79
2021/09/01 09:38:37;;;;;;;11.87;7.83;;;20.20;1.00;20.60;101640.00;;;;4880058;29;20452;-80
2021/09/01 09:41:09;;;;;;;16.47;7.90;;;20.30;1.00;21.00;101653.00;;;;4882650;29;20470;-80
2021/09/01 09:43:37;;;;;;;11.17;8.50;;;20.40;1.00;21.10;101665.00;;;;4893233;29;20480;-81
2021/09/01 09:46:11;;;;;;;10.57;7.87;;;20.50;1.00;21.30;101658.00;;;;4891749;29;20491;-80
2021/09/01 09:48:42;;;;;;;9.10;7.10;;;20.80;1.00;21.30;101671.00;;;;4901721;29;20495;-82
2021/09/01 09:51:13;;;;;;;9.43;8.07;;;20.80;1.00;20.80;101672.00;;;;4893104;29;20476;-87
2021/09/01 09:53:44;;;;;;;8.50;7.57;;;20.30;1.00;20.40;101668.00;;;;4894100;29;20520;-82
2021/09/01 09:56:17;;;;;;;9.40;7.33;;;20.00;1.00;20.40;101668.00;;;;4894418;29;20460;-83
2021/09/01 09:58:48;;;;;;;12.50;8.23;;;19.80;1.00;20.30;101664.00;;;;4880714;29;20538;-80
2021/09/01 10:01:19;;;;;;;10.33;7.70;;;19.70;1.00;20.50;101660.00;;;;4887649;29;20470;-81
2021/09/01 10:03:48;;;;;;;9.30;8.10;;;19.90;1.00;20.80;101663.00;;;;4889459;29;20483;-84
2021/09/01 10:06:20;;;;;;;10.50;8.10;;;20.20;1.00;21.00;101664.00;;;;4892432;29;20479;-86
2021/09/01 10:08:51;;;;;;;12.10;8.40;;;20.50;1.00;20.80;101625.00;;;;4890534;29;20467;-85
2021/09/01 10:11:20;;;;;;;10.10;7.30;;;20.30;1.00;20.80;101655.00;;;;4892163;29;20507;-86
2021/09/01 10:13:52;;;;;;;12.30;7.90;;;20.20;1.00;20.80;101653.00;;;;4893726;29;20460;-85
2021/09/01 10:16:32;;;;;;;10.20;8.17;;;20.30;1.00;20.90;101657.00;;;;4882595;29;20456;-85
2021/09/01 10:19:09;;;;;;;11.30;7.77;;;20.50;1.00;21.00;101652.00;;;;4883597;29;20969;-82
2021/09/01 10:21:42;;;;;;;8.93;7.10;;;20.60;1.00;20.90;101656.00;;;;4881659;29;20506;-85
2021/09/01 10:24:34;;;;;;;11.00;7.87;;;20.70;1.00;20.50;101639.00;;;;4888085;29;20471;-84
2021/09/01 10:27:10;;;;;;;11.80;6.93;;;20.50;1.00;20.80;101641.00;;;;4892423;29;20471;-80
2021/09/01 10:29:45;;;;;;;9.83;7.07;;;20.50;1.00;20.90;101633.00;;;;4891900;29;20436;-79
2021/09/01 10:32:32;;;;;;;10.77;7.40;;;20.70;1.00;20.80;101637.00;;;;4890891;29;20455;-80
2021/09/01 10:35:32;;;;;;;9.60;7.00;;;20.50;1.00;20.90;101631.00;;;;4892772;29;20463;-81
2021/09/01 10:38:06;;;;;;;13.60;7.83;;;20.60;1.00;21.00;101640.00;;;;4855964;29;20462;-81
2021/09/01 10:40:55;;;;;;;9.67;7.30;;;20.80;1.00;21.00;101624.00;;;;4884600;29;20484;-83
2021/09/01 10:43:24;;;;;;;9.20;7.53;;;20.90;1.00;21.10;101615.00;;;;4892062;29;20546;-80
2021/09/01 10:45:58;;;;;;;14.10;7.90;;;20.90;1.00;21.10;101631.00;;;;4890544;29;20491;-79
2021/09/01 10:48:27;;;;;;;10.60;7.20;;;20.80;1.00;21.10;101639.00;;;;4887375;29;20469;-81
2021/09/01 10:50:56;;;;;;;13.13;7.60;;;20.80;1.00;21.10;101629.00;;;;4881258;29;20483;-81
2021/09/01 10:53:28;;;;;;;11.17;7.70;;;21.00;1.00;21.10;101637.00;;;;4890603;29;20471;-80